createdAt,value
2019-04-22T00:02:07.989Z,45.57
2019-04-22T00:04:49.924Z,47.87
2019-04-22T00:07:28.518Z,47.91
2019-04-22T00:09:58.359Z,48.61
2019-04-22T00:12:35.862Z,48.24
2019-04-22T00:14:54.243Z,46.59
2019-04-22T00:18:02.963Z,50.09
2019-04-22T00:20:03.114Z,50.02
2019-04-22T00:22:27.704Z,51.47
2019-04-22T00:25:01.144Z,51.84
2019-04-22T00:27:39.006Z,48.64
2019-04-22T00:32:39.779Z,49.05
2019-04-22T00:35:09.347Z,47.42
2019-04-22T00:37:43.544Z,50.96
2019-04-22T00:40:15.954Z,49.35
2019-04-22T00:42:41.554Z,49.41
2019-04-22T00:45:11.720Z,48.42
2019-04-22T00:47:41.121Z,48.46
2019-04-22T00:50:23.559Z,49.36
2019-04-22T00:52:38.825Z,47.54
2019-04-22T00:55:15.225Z,50.18
2019-04-22T00:57:42.453Z,49.77
2019-04-22T01:00:13.014Z,48.71
2019-04-22T01:02:46.202Z,48.38
2019-04-22T01:05:15.175Z,47.13
2019-04-22T01:07:36.876Z,47.25
2019-04-22T01:10:11.700Z,47.02
2019-04-22T01:12:39.514Z,47.96
2019-04-22T01:15:07.333Z,47.05
2019-04-22T01:17:38.811Z,48.12
2019-04-22T01:20:25.774Z,48.11
2019-04-22T01:22:34.080Z,48.10
2019-04-22T01:25:02.428Z,48.53
2019-04-22T01:27:30.970Z,47.51
2019-04-22T01:29:59.771Z,47.86
2019-04-22T01:32:26.093Z,48.15
2019-04-22T01:35:03.502Z,48.03
2019-04-22T01:37:34.773Z,47.86
2019-04-22T01:40:11.371Z,48.30
2019-04-22T01:42:54.049Z,48.45
2019-04-22T01:45:13.984Z,48.97
2019-04-22T01:47:46.663Z,49.30
2019-04-22T01:50:12.120Z,48.40
2019-04-22T01:52:46.768Z,47.86
2019-04-22T01:55:17.686Z,48.19
2019-04-22T01:57:45.942Z,49.04
2019-04-22T02:00:09.138Z,49.97
2019-04-22T02:02:44.889Z,49.43
2019-04-22T02:05:14.608Z,48.58
2019-04-22T02:07:41.931Z,48.27
2019-04-22T02:10:11.176Z,48.39
2019-04-22T02:12:45.884Z,48.43
2019-04-22T02:15:12.289Z,51.13
2019-04-22T02:17:53.452Z,52.30
2019-04-22T02:20:12.054Z,52.73
2019-04-22T02:28:32.578Z,51.23
2019-04-22T02:38:51.844Z,49.93
2019-04-22T02:41:17.402Z,50.59
2019-04-22T02:46:26.716Z,49.64
2019-04-22T02:51:11.633Z,50.64
2019-04-22T02:56:25.558Z,50.34
2019-04-22T02:58:46.967Z,50.69
2019-04-22T03:06:15.405Z,51.39
2019-04-22T03:08:43.420Z,51.59
2019-04-22T03:11:12.577Z,51.77
2019-04-22T03:16:17.502Z,51.43
2019-04-22T03:21:14.150Z,51.56
2019-04-22T03:23:45.632Z,51.62
2019-04-22T03:26:22.712Z,53.12
2019-04-22T03:28:47.785Z,54.46
2019-04-22T03:31:34.296Z,53.68
2019-04-22T03:34:14.765Z,52.82
2019-04-22T03:36:58.234Z,52.10
2019-04-22T03:39:06.673Z,54.02
2019-04-22T03:41:43.317Z,55.78
2019-04-22T03:44:09.850Z,55.22
2019-04-22T03:46:21.085Z,56.57
2019-04-22T03:48:59.757Z,57.25
2019-04-22T03:51:25.345Z,57.15
2019-04-22T03:53:52.167Z,54.81
2019-04-22T03:56:47.211Z,54.42
2019-04-22T04:01:30.491Z,54.39
2019-04-22T04:03:57.811Z,56.27
2019-04-22T04:06:20.873Z,55.74
2019-04-22T04:08:51.737Z,57.66
2019-04-22T04:11:24.548Z,58.37
2019-04-22T04:13:57.895Z,58.61
2019-04-22T04:16:21.362Z,57.78
2019-04-22T04:26:33.555Z,52.05
2019-04-22T04:41:26.985Z,54.26
2019-04-22T04:44:15.202Z,54.19
2019-04-22T04:49:00.953Z,52.48
2019-04-22T04:54:01.686Z,51.41
2019-04-22T04:56:34.726Z,52.01
2019-04-22T05:01:30.772Z,53.99
2019-04-22T05:03:57.585Z,52.88
2019-04-22T05:06:37.592Z,51.99
2019-04-22T05:11:27.148Z,52.21
2019-04-22T05:18:57.168Z,50.11
2019-04-22T05:21:17.304Z,52.89
2019-04-22T05:23:53.501Z,51.19
2019-04-22T05:28:51.366Z,51.27
2019-04-22T05:33:51.456Z,48.62
2019-04-22T05:36:25.964Z,47.71
2019-04-22T05:41:16.272Z,47.49
2019-04-22T05:43:55.061Z,47.84
2019-04-22T05:46:15.375Z,45.61
2019-04-22T05:48:56.656Z,44.96
2019-04-22T05:51:18.111Z,45.90
2019-04-22T05:53:47.954Z,46.35
2019-04-22T05:56:28.447Z,44.35
2019-04-22T05:58:54.086Z,45.08
2019-04-22T06:03:52.867Z,44.17
2019-04-22T06:06:18.232Z,44.71
2019-04-22T06:08:54.886Z,44.45
2019-04-22T06:11:24.436Z,45.20
2019-04-22T06:13:42.765Z,43.84
2019-04-22T06:16:24.178Z,43.54
2019-04-22T06:18:52.732Z,42.97
2019-04-22T06:21:18.714Z,44.88
2019-04-22T06:23:58.852Z,44.26
2019-04-22T06:26:46.314Z,44.75
2019-04-22T06:31:24.474Z,43.84
2019-04-22T06:33:56.495Z,43.25
2019-04-22T06:36:24.522Z,44.41
2019-04-22T06:38:46.684Z,45.93
2019-04-22T06:41:24.836Z,44.70
2019-04-22T06:43:56.037Z,43.73
2019-04-22T06:46:20.426Z,45.46
2019-04-22T06:48:47.887Z,44.05
2019-04-22T06:51:21.352Z,42.77
2019-04-22T06:53:47.349Z,44.13
2019-04-22T06:56:17.276Z,42.93
2019-04-22T06:58:57.978Z,43.20
2019-04-22T07:09:14.417Z,41.86
2019-04-22T07:11:17.211Z,40.72
2019-04-22T07:13:50.248Z,42.05
2019-04-22T07:18:48.420Z,42.60
2019-04-22T07:21:23.035Z,41.89
2019-04-22T07:24:22.756Z,40.92
2019-04-22T07:26:18.799Z,41.45
2019-04-22T07:28:49.164Z,42.07
2019-04-22T07:31:15.802Z,40.55
2019-04-22T07:34:12.876Z,40.66
2019-04-22T07:38:43.894Z,40.31
2019-04-22T07:41:12.435Z,40.74
2019-04-22T07:46:22.965Z,40.69
2019-04-22T07:49:02.348Z,40.32
2019-04-22T07:51:20.438Z,39.67
2019-04-22T07:53:48.532Z,42.58
2019-04-22T07:56:19.072Z,40.36
2019-04-22T07:58:49.067Z,42.15
2019-04-22T08:01:23.975Z,38.75
2019-04-22T08:04:15.196Z,39.03
2019-04-22T08:06:17.234Z,38.87
2019-04-22T08:08:45.639Z,38.62
2019-04-22T08:11:30.615Z,40.03
2019-04-22T08:14:03.548Z,39.64
2019-04-22T08:16:17.210Z,37.99
2019-04-22T08:18:45.411Z,36.13
2019-04-22T08:21:19.717Z,37.60
2019-04-22T08:23:51.394Z,36.25
2019-04-22T08:26:19.374Z,37.04
2019-04-22T08:31:20.367Z,37.16
2019-04-22T08:33:47.160Z,37.24
2019-04-22T08:36:32.015Z,36.59
2019-04-22T08:38:54.245Z,36.77
2019-04-22T08:43:59.359Z,35.30
2019-04-22T08:46:29.325Z,36.29
2019-04-22T08:48:52.859Z,34.97
2019-04-22T08:51:23.458Z,36.74
2019-04-22T08:53:57.491Z,35.19
2019-04-22T08:56:30.948Z,35.91
2019-04-22T08:58:57.017Z,35.73
2019-04-22T09:01:22.785Z,35.81
2019-04-22T09:03:52.750Z,36.78
2019-04-22T09:06:29.704Z,33.60
2019-04-22T09:08:54.184Z,33.36
2019-04-22T09:11:33.803Z,35.35
2019-04-22T09:16:30.159Z,34.35
2019-04-22T09:18:53.802Z,34.38
2019-04-22T09:21:26.422Z,34.28
2019-04-22T09:23:56.862Z,33.52
2019-04-22T09:26:22.884Z,32.50
2019-04-22T09:28:52.260Z,33.03
2019-04-22T09:31:21.040Z,33.48
2019-04-22T09:33:49.687Z,33.75
2019-04-22T09:38:47.282Z,33.55
2019-04-22T09:41:27.265Z,34.16
2019-04-22T09:46:33.179Z,32.09
2019-04-22T09:49:03.319Z,32.71
2019-04-22T09:51:25.270Z,30.55
2019-04-22T09:54:02.340Z,32.91
2019-04-22T09:56:28.013Z,31.07
2019-04-22T10:06:30.923Z,31.73
2019-04-22T10:11:35.036Z,31.44
2019-04-22T10:21:35.556Z,30.14
2019-04-22T10:24:00.225Z,32.31
2019-04-22T10:26:28.681Z,29.94
2019-04-22T10:31:34.871Z,28.65
2019-04-22T10:33:45.237Z,30.42
2019-04-22T10:35:59.317Z,30.66
2019-04-22T10:38:28.387Z,31.46
2019-04-22T10:40:58.587Z,29.85
2019-04-22T10:43:27.506Z,28.21
2019-04-22T10:45:55.769Z,32.58
2019-04-22T10:48:26.080Z,29.53
2019-04-22T10:50:54.951Z,31.60
2019-04-22T10:53:23.847Z,28.69
2019-04-22T10:55:52.084Z,29.68
2019-04-22T10:58:20.853Z,28.46
2019-04-22T11:00:50.212Z,29.17
2019-04-22T11:03:20.388Z,29.76
2019-04-22T11:05:48.606Z,27.72
2019-04-22T11:08:25.957Z,29.46
2019-04-22T11:11:00.722Z,28.63
2019-04-22T11:13:17.984Z,27.80
2019-04-22T11:15:46.813Z,28.16
2019-04-22T11:18:15.739Z,27.85
2019-04-22T11:20:44.063Z,28.45
2019-04-22T11:23:12.234Z,28.49
2019-04-22T11:25:41.661Z,28.34
2019-04-22T11:28:09.944Z,27.32
2019-04-22T11:30:38.879Z,28.32
2019-04-22T11:33:08.571Z,28.47
2019-04-22T11:35:37.593Z,28.41
2019-04-22T11:38:06.648Z,29.29
2019-04-22T11:40:39.947Z,27.90
2019-04-22T11:43:06.009Z,28.43
2019-04-22T11:45:35.409Z,26.31
2019-04-22T11:48:05.496Z,28.43
2019-04-22T11:50:33.829Z,29.98
2019-04-22T11:53:02.882Z,26.72
2019-04-22T11:55:31.065Z,28.00
2019-04-22T11:57:59.330Z,25.50
2019-04-22T12:00:32.770Z,27.32
2019-04-22T12:03:03.216Z,26.29
2019-04-22T12:05:32.255Z,27.01
2019-04-22T12:08:00.532Z,27.60
2019-04-22T12:10:38.991Z,26.28
2019-04-22T12:12:59.955Z,26.49
2019-04-22T12:15:28.933Z,26.39
2019-04-22T12:17:57.504Z,28.16
2019-04-22T12:20:27.459Z,28.52
2019-04-22T12:22:56.758Z,28.58
2019-04-22T12:25:34.704Z,29.81
2019-04-22T12:27:56.925Z,30.25
2019-04-22T12:30:25.717Z,28.97
2019-04-22T12:32:54.692Z,30.35
2019-04-22T12:35:24.317Z,30.46
2019-04-22T12:37:57.539Z,29.13
2019-04-22T12:40:34.128Z,32.81
2019-04-22T12:42:53.501Z,30.36
2019-04-22T12:45:22.452Z,31.70
2019-04-22T12:47:50.750Z,32.16
2019-04-22T12:50:26.060Z,31.94
2019-04-22T12:52:56.807Z,29.23
2019-04-22T12:55:19.756Z,29.40
2019-04-22T12:57:48.915Z,29.59
2019-04-22T13:00:18.307Z,29.17
2019-04-22T13:02:47.338Z,29.67
2019-04-22T13:05:16.304Z,28.33
2019-04-22T13:07:45.242Z,31.94
2019-04-22T13:10:13.914Z,31.74
2019-04-22T13:12:44.808Z,27.58
2019-04-22T13:15:16.001Z,27.39
2019-04-22T13:17:44.452Z,27.68
2019-04-22T13:20:16.405Z,27.65
2019-04-22T13:22:45.032Z,29.34
2019-04-22T13:25:13.502Z,31.82
2019-04-22T13:27:42.873Z,28.32
2019-04-22T13:30:14.519Z,27.92
2019-04-22T13:32:43.013Z,27.55
2019-04-22T13:35:12.734Z,32.45
2019-04-22T13:37:41.134Z,28.04
2019-04-22T13:40:10.746Z,29.52
2019-04-22T13:42:40.340Z,28.07
2019-04-22T13:45:09.730Z,30.69
2019-04-22T13:47:55.733Z,28.18
2019-04-22T13:50:44.047Z,27.79
2019-04-22T13:53:21.939Z,28.13
2019-04-22T13:55:41.861Z,27.29
2019-04-22T13:57:57.124Z,29.94
2019-04-22T14:00:14.077Z,27.54
2019-04-22T14:02:44.644Z,30.31
2019-04-22T14:05:14.904Z,29.08
2019-04-22T14:07:43.217Z,29.76
2019-04-22T14:10:14.190Z,27.77
2019-04-22T14:12:42.721Z,28.70
2019-04-22T14:15:11.715Z,27.93
2019-04-22T14:17:41.055Z,28.85
2019-04-22T14:20:09.284Z,28.67
2019-04-22T14:22:38.864Z,30.10
2019-04-22T14:25:07.693Z,27.86
2019-04-22T14:27:47.537Z,30.01
2019-04-22T14:30:08.782Z,28.62
2019-04-22T14:32:37.962Z,27.92
2019-04-22T14:35:09.201Z,27.02
2019-04-22T14:37:38.518Z,28.13
2019-04-22T14:42:59.010Z,28.95
2019-04-22T14:44:12.633Z,29.07
2019-04-22T14:46:00.268Z,30.36
2019-04-22T14:48:05.819Z,31.26
2019-04-22T14:50:31.914Z,28.44
2019-04-22T14:53:00.934Z,29.18
2019-04-22T14:55:16.959Z,29.93
2019-04-22T14:57:39.832Z,28.69
2019-04-22T15:00:09.859Z,28.87
2019-04-22T15:02:39.426Z,28.76
2019-04-22T15:05:08.150Z,29.62
2019-04-22T15:07:37.073Z,28.22
2019-04-22T15:10:08.406Z,29.71
2019-04-22T15:12:44.185Z,28.82
2019-04-22T15:15:15.816Z,28.20
2019-04-22T15:17:47.123Z,28.16
2019-04-22T15:20:17.072Z,28.00
2019-04-22T15:22:46.423Z,29.45
2019-04-22T15:25:14.753Z,29.48
2019-04-22T15:27:43.521Z,29.30
2019-04-22T15:30:11.836Z,30.05
2019-04-22T15:32:41.221Z,29.74
2019-04-22T15:35:09.499Z,29.90
2019-04-22T15:37:39.367Z,29.47
2019-04-22T15:40:08.856Z,28.99
2019-04-22T15:42:40.229Z,28.55
2019-04-22T15:45:08.607Z,29.23
2019-04-22T15:47:37.727Z,30.08
2019-04-22T15:50:06.087Z,30.50
2019-04-22T15:52:41.967Z,29.69
2019-04-22T15:55:04.881Z,29.74
2019-04-22T15:57:36.449Z,29.12
2019-04-22T16:00:18.151Z,29.44
2019-04-22T16:02:35.344Z,29.71
2019-04-22T16:05:04.488Z,29.87
2019-04-22T16:07:33.826Z,29.92
2019-04-22T16:10:03.710Z,29.11
2019-04-22T16:12:42.483Z,29.33
2019-04-22T16:15:05.151Z,29.10
2019-04-22T16:17:32.813Z,29.75
2019-04-22T16:20:01.526Z,29.80
2019-04-22T16:22:34.235Z,30.56
2019-04-22T16:25:04.832Z,30.56
2019-04-22T16:27:34.214Z,31.00
2019-04-22T16:30:03.624Z,31.52
2019-04-22T16:32:32.093Z,30.65
2019-04-22T16:35:01.692Z,32.16
2019-04-22T16:37:30.552Z,31.95
2019-04-22T16:39:59.018Z,32.35
2019-04-22T16:42:37.786Z,32.02
2019-04-22T16:44:57.667Z,31.48
2019-04-22T16:47:27.804Z,32.02
2019-04-22T16:49:57.453Z,31.54
2019-04-22T16:52:25.993Z,32.30
2019-04-22T16:54:54.871Z,32.41
2019-04-22T16:57:23.875Z,33.29
2019-04-22T16:59:53.012Z,33.17
2019-04-22T17:02:34.866Z,32.89
2019-04-22T17:05:05.397Z,32.91
2019-04-22T17:07:34.269Z,32.40
2019-04-22T17:10:03.851Z,32.70
2019-04-22T17:12:45.720Z,32.85
2019-04-22T17:15:07.952Z,34.23
2019-04-22T17:17:32.698Z,33.85
2019-04-22T17:20:02.942Z,32.96
2019-04-22T17:22:31.395Z,33.86
2019-04-22T17:25:00.243Z,33.34
2019-04-22T17:27:30.941Z,34.13
2019-04-22T17:29:59.060Z,34.01
2019-04-22T17:32:28.816Z,34.46
2019-04-22T17:34:57.475Z,34.21
2019-04-22T17:37:28.519Z,35.46
2019-04-22T17:40:13.364Z,33.88
2019-04-22T17:42:46.442Z,34.35
2019-04-22T17:45:22.291Z,34.71
2019-04-22T17:48:14.153Z,34.25
2019-04-22T17:50:44.419Z,34.27
2019-04-22T17:53:18.423Z,34.44
2019-04-22T17:55:49.534Z,34.47
2019-04-22T18:01:39.929Z,35.16
2019-04-22T18:03:56.640Z,34.82
2019-04-22T18:06:50.079Z,35.10
2019-04-22T18:09:09.917Z,36.20
2019-04-22T18:11:56.464Z,36.40
2019-04-22T18:14:32.952Z,36.31
2019-04-22T18:16:41.462Z,36.66
2019-04-22T18:19:11.841Z,37.50
2019-04-22T18:21:35.120Z,36.89
2019-04-22T18:23:56.461Z,37.37
2019-04-22T18:26:37.424Z,38.50
2019-04-22T18:29:08.682Z,38.81
2019-04-22T18:31:32.965Z,39.08
2019-04-22T18:34:04.387Z,38.80
2019-04-22T18:36:33.249Z,38.74
2019-04-22T18:39:11.519Z,39.31
2019-04-22T18:41:39.540Z,39.02
2019-04-22T18:44:09.730Z,39.94
2019-04-22T18:46:58.171Z,40.76
2019-04-22T18:49:28.087Z,39.57
2019-04-22T18:52:04.552Z,39.72
2019-04-22T18:54:36.251Z,39.72
2019-04-22T18:57:09.931Z,40.53
2019-04-22T18:59:27.708Z,40.67
2019-04-22T19:01:52.318Z,40.51
2019-04-22T19:04:27.445Z,40.40
2019-04-22T19:07:17.546Z,40.52
2019-04-22T19:09:51.651Z,40.90
2019-04-22T19:12:22.968Z,40.91
2019-04-22T19:14:54.980Z,40.98
2019-04-22T19:17:27.194Z,41.54
2019-04-22T19:19:49.803Z,41.27
2019-04-22T19:22:15.817Z,41.64
2019-04-22T19:24:39.811Z,41.32
2019-04-22T19:27:09.287Z,41.77
2019-04-22T19:29:44.774Z,42.16
2019-04-22T19:32:14.187Z,42.11
2019-04-22T19:34:46.396Z,42.60
2019-04-22T19:37:13.191Z,43.05
2019-04-22T19:39:40.982Z,43.31
2019-04-22T19:42:19.087Z,43.01
2019-04-22T19:44:43.852Z,43.39
2019-04-22T19:47:24.101Z,43.35
2019-04-22T19:49:52.363Z,43.31
2019-04-22T19:52:19.359Z,43.49
2019-04-22T19:54:41.926Z,44.00
2019-04-22T19:57:11.741Z,43.38
2019-04-22T19:59:45.340Z,43.27
2019-04-22T20:02:19.644Z,43.42
2019-04-22T20:05:02.774Z,43.47
2019-04-22T20:07:29.154Z,43.85
2019-04-22T20:09:57.642Z,44.37
2019-04-22T20:12:27.886Z,42.97
2019-04-22T20:14:57.281Z,43.92
2019-04-22T20:17:33.138Z,43.70
2019-04-22T20:20:06.581Z,43.48
2019-04-22T20:22:30.142Z,43.71
2019-04-22T20:24:47.209Z,43.75
2019-04-22T20:27:33.530Z,44.69
2019-04-22T20:30:02.404Z,44.53
2019-04-22T20:32:27.873Z,44.34
2019-04-22T20:35:04.337Z,44.20
2019-04-22T20:37:36.833Z,44.22
2019-04-22T20:40:00.847Z,45.12
2019-04-22T20:42:43.632Z,44.42
2019-04-22T20:45:05.665Z,44.42
2019-04-22T20:47:29.527Z,44.33
2019-04-22T20:49:58.961Z,44.64
2019-04-22T20:54:55.770Z,44.84
2019-04-22T20:57:34.942Z,44.17
2019-04-22T20:59:55.609Z,45.13
2019-04-22T21:02:18.195Z,44.76
2019-04-22T21:04:50.364Z,45.21
2019-04-22T21:07:28.246Z,44.91
2019-04-22T21:09:59.384Z,44.51
2019-04-22T21:12:22.463Z,45.32
2019-04-22T21:15:08.112Z,45.35
2019-04-22T21:17:31.182Z,44.96
2019-04-22T21:20:10.484Z,45.03
2019-04-22T21:22:35.810Z,44.45
2019-04-22T21:24:59.353Z,44.12
2019-04-22T21:27:39.447Z,43.98
2019-04-22T21:29:55.964Z,43.05
2019-04-22T21:32:32.910Z,43.37
2019-04-22T21:35:06.570Z,43.50
2019-04-22T21:37:37.780Z,43.68
2019-04-22T21:39:57.951Z,42.81
2019-04-22T21:42:36.678Z,43.91
2019-04-22T21:44:56.962Z,44.11
2019-04-22T21:47:36.128Z,43.04
2019-04-22T21:50:21.491Z,42.86
2019-04-22T21:52:28.124Z,43.89
2019-04-22T21:55:07.037Z,43.82
2019-04-22T21:58:00.421Z,43.97
2019-04-22T22:00:31.073Z,43.27
2019-04-22T22:02:51.854Z,43.67
2019-04-22T22:05:10.736Z,44.31
2019-04-22T22:07:32.582Z,43.96
2019-04-22T22:10:22.972Z,43.73
2019-04-22T22:12:52.484Z,45.23
2019-04-22T22:15:21.952Z,43.78
2019-04-22T22:17:50.457Z,44.28
2019-04-22T22:20:17.273Z,43.94
2019-04-22T22:23:00.598Z,44.67
2019-04-22T22:25:21.205Z,44.32
2019-04-22T22:27:49.480Z,44.97
2019-04-22T22:30:42.851Z,45.11
2019-04-22T22:32:59.312Z,45.02
2019-04-22T22:35:20.660Z,44.85
2019-04-22T22:37:50.203Z,45.05
2019-04-22T22:40:07.180Z,45.96
2019-04-22T22:42:38.642Z,45.93
2019-04-22T22:45:14.194Z,45.64
2019-04-22T22:47:55.895Z,45.22
2019-04-22T22:50:25.295Z,45.28
2019-04-22T22:53:03.072Z,45.10
2019-04-22T22:55:22.224Z,45.54
2019-04-22T22:57:50.282Z,45.95
2019-04-22T23:00:22.488Z,45.58
2019-04-22T23:03:06.964Z,45.27
2019-04-22T23:05:29.012Z,45.64
2019-04-22T23:07:54.103Z,45.60
2019-04-22T23:10:16.122Z,45.76
2019-04-22T23:12:55.716Z,46.43
2019-04-22T23:15:23.493Z,45.81
2019-04-22T23:17:34.292Z,46.86
2019-04-22T23:20:03.410Z,46.27
2019-04-22T23:22:51.048Z,47.59
2019-04-22T23:25:27.509Z,47.07
2019-04-22T23:28:00.099Z,47.60
2019-04-22T23:30:32.296Z,48.74
2019-04-22T23:33:13.330Z,49.64
2019-04-22T23:35:49.394Z,49.53
2019-04-22T23:38:20.750Z,49.91
2019-04-22T23:40:47.631Z,50.15
2019-04-22T23:43:30.328Z,50.54
2019-04-22T23:45:56.707Z,50.91
2019-04-22T23:48:20.734Z,49.93
2019-04-22T23:50:55.883Z,50.23
2019-04-22T23:53:57.407Z,49.96
2019-04-22T23:56:12.204Z,50.20
2019-04-22T23:58:55.161Z,49.52
